createdAt,value
2017-02-26T00:00:49.720Z,733.48
2017-02-26T00:01:49.699Z,733.45
2017-02-26T00:02:49.683Z,733.4
2017-02-26T00:03:49.668Z,733.43
2017-02-26T00:04:49.652Z,733.4
2017-02-26T00:05:49.641Z,733.38
2017-02-26T00:06:49.620Z,733.45
2017-02-26T00:07:49.609Z,733.45
2017-02-26T00:08:49.594Z,733.4
2017-02-26T00:09:49.574Z,733.43
2017-02-26T00:10:49.563Z,733.41
2017-02-26T00:11:49.547Z,733.35
2017-02-26T00:12:49.532Z,733.4
2017-02-26T00:13:49.511Z,733.38
2017-02-26T00:14:49.500Z,733.33
2017-02-26T00:15:49.485Z,733.36
2017-02-26T00:16:49.469Z,733.39
2017-02-26T00:17:49.452Z,733.4
2017-02-26T00:18:49.437Z,733.39
2017-02-26T00:19:49.421Z,733.42
2017-02-26T00:20:49.402Z,733.38
2017-02-26T00:21:49.385Z,733.43
2017-02-26T00:22:49.369Z,733.4
2017-02-26T00:23:49.358Z,733.39
2017-02-26T00:24:49.338Z,733.42
2017-02-26T00:25:49.321Z,733.35
2017-02-26T00:26:49.310Z,733.39
2017-02-26T00:27:49.289Z,733.37
2017-02-26T00:28:49.274Z,733.38
2017-02-26T00:29:49.257Z,733.34
2017-02-26T00:30:49.246Z,733.38
2017-02-26T00:31:49.230Z,733.36
2017-02-26T00:32:49.214Z,733.35
2017-02-26T00:33:49.194Z,733.37
2017-02-26T00:34:49.183Z,733.41
2017-02-26T00:35:49.161Z,733.37
2017-02-26T00:36:49.149Z,733.38
2017-02-26T00:37:49.134Z,733.42
2017-02-26T00:38:49.115Z,733.42
2017-02-26T00:39:49.098Z,733.43
2017-02-26T00:40:49.082Z,733.38
2017-02-26T00:41:49.067Z,733.43
2017-02-26T00:42:49.050Z,733.38
2017-02-26T00:43:49.036Z,733.4
2017-02-26T00:44:49.020Z,733.42
2017-02-26T00:45:49.007Z,733.42
2017-02-26T00:46:48.987Z,733.38
2017-02-26T00:47:48.972Z,733.39
2017-02-26T00:48:48.960Z,733.38
2017-02-26T00:49:48.944Z,733.38
2017-02-26T00:50:48.923Z,733.38
2017-02-26T00:51:48.907Z,733.36
2017-02-26T00:52:48.891Z,733.37
2017-02-26T00:53:48.878Z,733.36
2017-02-26T00:54:48.859Z,733.34
2017-02-26T00:55:48.847Z,733.37
2017-02-26T00:56:48.832Z,733.34
2017-02-26T00:57:48.810Z,733.37
2017-02-26T00:58:48.798Z,733.36
2017-02-26T00:59:48.782Z,733.34
2017-02-26T01:00:48.762Z,733.4
2017-02-26T01:01:48.748Z,733.37
2017-02-26T01:02:48.731Z,733.35
2017-02-26T01:03:48.715Z,733.34
2017-02-26T01:04:48.701Z,733.35
2017-02-26T01:05:48.686Z,733.36
2017-02-26T01:06:48.669Z,733.35
2017-02-26T01:07:48.653Z,733.39
2017-02-26T01:08:48.631Z,733.37
2017-02-26T01:09:48.617Z,733.34
2017-02-26T01:10:48.599Z,733.35
2017-02-26T01:11:48.583Z,733.34
2017-02-26T01:12:48.570Z,733.31
2017-02-26T01:13:48.550Z,733.32
2017-02-26T01:14:48.538Z,733.3
2017-02-26T01:15:48.521Z,733.28
2017-02-26T01:16:48.501Z,733.3
2017-02-26T01:17:48.488Z,733.29
2017-02-26T01:18:48.472Z,733.29
2017-02-26T01:19:48.451Z,733.26
2017-02-26T01:20:48.435Z,733.22
2017-02-26T01:21:48.424Z,733.26
2017-02-26T01:22:48.406Z,733.26
2017-02-26T01:23:48.386Z,733.23
2017-02-26T01:24:48.369Z,733.25
2017-02-26T01:25:48.355Z,733.24
2017-02-26T01:26:48.341Z,733.29
2017-02-26T01:27:48.324Z,733.26
2017-02-26T01:28:48.305Z,733.27
2017-02-26T01:29:48.293Z,733.25
2017-02-26T01:30:48.275Z,733.31
2017-02-26T01:31:48.256Z,733.27
2017-02-26T01:32:48.244Z,733.24
2017-02-26T01:33:48.222Z,733.2
2017-02-26T01:34:48.208Z,733.24
2017-02-26T01:35:48.195Z,733.2
2017-02-26T01:36:48.175Z,733.27
2017-02-26T01:37:48.162Z,733.29
2017-02-26T01:38:48.142Z,733.31
2017-02-26T01:39:48.130Z,733.26
2017-02-26T01:40:48.111Z,733.3
2017-02-26T01:41:48.094Z,733.25
2017-02-26T01:42:48.076Z,733.25
2017-02-26T01:43:48.062Z,733.26
2017-02-26T01:44:48.044Z,733.19
2017-02-26T01:45:48.033Z,733.2
2017-02-26T01:46:48.012Z,733.23
2017-02-26T01:47:47.996Z,733.17
2017-02-26T01:48:47.984Z,733.14
2017-02-26T01:49:47.968Z,733.15
2017-02-26T01:50:47.953Z,733.09
2017-02-26T01:51:47.934Z,733.14
2017-02-26T01:52:47.920Z,733.1
2017-02-26T01:53:47.904Z,733.09
2017-02-26T01:54:47.920Z,733.09
2017-02-26T01:55:47.868Z,733.13
2017-02-26T01:56:47.852Z,733.13
2017-02-26T01:57:47.836Z,733.12
2017-02-26T01:58:47.820Z,733.05
2017-02-26T01:59:47.805Z,733.09
2017-02-26T02:00:47.792Z,733.1
2017-02-26T02:01:47.772Z,733.07
2017-02-26T02:02:47.758Z,733.05
2017-02-26T02:03:47.744Z,733.08
2017-02-26T02:04:47.728Z,733.06
2017-02-26T02:05:47.708Z,733.12
2017-02-26T02:06:47.696Z,733.08
2017-02-26T02:07:47.678Z,733.07
2017-02-26T02:08:47.665Z,733.02
2017-02-26T02:09:47.644Z,733.06
2017-02-26T02:10:47.628Z,733.07
2017-02-26T02:11:47.617Z,733.05
2017-02-26T02:12:47.597Z,733.09
2017-02-26T02:13:47.585Z,733.05
2017-02-26T02:14:47.569Z,733.04
2017-02-26T02:15:47.550Z,733.07
2017-02-26T02:16:47.539Z,733.03
2017-02-26T02:17:47.519Z,733.05
2017-02-26T02:18:47.502Z,733.04
2017-02-26T02:19:47.491Z,732.99
2017-02-26T02:20:47.471Z,733.01
2017-02-26T02:21:47.458Z,732.98
2017-02-26T02:22:47.439Z,732.99
2017-02-26T02:23:47.423Z,733.02
2017-02-26T02:24:47.408Z,733.03
2017-02-26T02:25:47.395Z,733.02
2017-02-26T02:26:47.380Z,733.06
2017-02-26T02:27:47.363Z,733.04
2017-02-26T02:28:47.347Z,733.06
2017-02-26T02:29:47.327Z,733.05
2017-02-26T02:30:47.317Z,733.04
2017-02-26T02:31:47.295Z,733.04
2017-02-26T02:32:47.278Z,733.02
2017-02-26T02:33:47.267Z,732.99
2017-02-26T02:34:47.247Z,733.02
2017-02-26T02:35:47.235Z,733.02
2017-02-26T02:36:47.220Z,733.03
2017-02-26T02:37:47.201Z,733.03
2017-02-26T02:38:47.188Z,733.01
2017-02-26T02:39:47.168Z,733.03
2017-02-26T02:40:47.154Z,733.05
2017-02-26T02:41:47.140Z,733.03
2017-02-26T02:42:47.121Z,733.06
2017-02-26T02:43:47.109Z,733.05
2017-02-26T02:44:47.093Z,733.06
2017-02-26T02:45:47.075Z,733.1
2017-02-26T02:46:47.056Z,733.1
2017-02-26T02:47:47.044Z,733.08
2017-02-26T02:48:47.026Z,733.06
2017-02-26T02:49:47.012Z,733.07
2017-02-26T02:50:46.994Z,733.05
2017-02-26T02:51:46.979Z,733.06
2017-02-26T02:52:46.968Z,733.05
2017-02-26T02:53:46.952Z,733.03
2017-02-26T02:54:46.936Z,732.98
2017-02-26T02:55:46.916Z,733.02
2017-02-26T02:56:46.906Z,732.99
2017-02-26T02:57:46.889Z,732.98
2017-02-26T02:58:46.874Z,732.98
2017-02-26T02:59:46.859Z,732.94
2017-02-26T03:00:46.844Z,732.98
2017-02-26T03:01:46.829Z,732.97
2017-02-26T03:02:46.813Z,732.91
2017-02-26T03:03:46.797Z,732.9
2017-02-26T03:04:46.782Z,732.91
2017-02-26T03:05:46.766Z,732.93
2017-02-26T03:06:46.750Z,732.94
2017-02-26T03:07:46.733Z,732.97
2017-02-26T03:08:46.715Z,732.96
2017-02-26T03:09:46.700Z,732.95
2017-02-26T03:10:46.685Z,732.97
2017-02-26T03:11:46.674Z,732.93
2017-02-26T03:12:46.658Z,732.96
2017-02-26T03:13:46.643Z,732.97
2017-02-26T03:14:46.624Z,732.96
2017-02-26T03:15:46.608Z,732.96
2017-02-26T03:16:46.596Z,732.91
2017-02-26T03:17:46.581Z,732.98
2017-02-26T03:18:46.566Z,732.89
2017-02-26T03:19:46.549Z,732.93
2017-02-26T03:20:46.530Z,732.96
2017-02-26T03:21:46.519Z,732.91
2017-02-26T03:22:46.499Z,732.92
2017-02-26T03:23:46.488Z,732.9
2017-02-26T03:24:46.468Z,732.94
2017-02-26T03:25:46.454Z,732.95
2017-02-26T03:26:46.441Z,732.91
2017-02-26T03:27:46.421Z,732.97
2017-02-26T03:28:46.406Z,732.94
2017-02-26T03:29:46.395Z,732.94
2017-02-26T03:30:46.376Z,732.89
2017-02-26T03:31:46.359Z,732.92
2017-02-26T03:32:46.348Z,732.9
2017-02-26T03:33:46.333Z,732.88
2017-02-26T03:34:46.317Z,732.89
2017-02-26T03:35:46.301Z,732.94
2017-02-26T03:36:46.282Z,732.89
2017-02-26T03:37:46.271Z,732.9
2017-02-26T03:38:46.252Z,732.88
2017-02-26T03:39:46.235Z,732.87
2017-02-26T03:40:46.221Z,732.9
2017-02-26T03:41:46.208Z,732.9
2017-02-26T03:42:46.192Z,732.92
2017-02-26T03:43:46.174Z,732.96
2017-02-26T03:44:46.162Z,732.91
2017-02-26T03:45:46.145Z,732.92
2017-02-26T03:46:46.129Z,732.9
2017-02-26T03:47:46.110Z,732.85
2017-02-26T03:48:46.099Z,732.8
2017-02-26T03:49:46.082Z,732.87
2017-02-26T03:50:46.063Z,732.79
2017-02-26T03:51:46.052Z,732.86
2017-02-26T03:52:46.032Z,732.8
2017-02-26T03:53:46.020Z,732.77
2017-02-26T03:54:46.001Z,732.78
2017-02-26T03:55:45.990Z,732.78
2017-02-26T03:56:45.973Z,732.74
2017-02-26T03:57:45.953Z,732.8
2017-02-26T03:58:45.938Z,732.75
2017-02-26T03:59:45.924Z,732.76
2017-02-26T04:00:45.906Z,732.81
2017-02-26T04:01:45.891Z,732.8
2017-02-26T04:02:45.876Z,732.76
2017-02-26T04:03:45.864Z,732.75
2017-02-26T04:04:45.844Z,732.75
2017-02-26T04:05:45.828Z,732.75
2017-02-26T04:06:45.814Z,732.71
2017-02-26T04:07:45.801Z,732.68
2017-02-26T04:08:45.785Z,732.65
2017-02-26T04:09:45.765Z,732.63
2017-02-26T04:10:45.750Z,732.66
2017-02-26T04:11:45.738Z,732.63
2017-02-26T04:12:45.722Z,732.64
2017-02-26T04:13:45.703Z,732.56
2017-02-26T04:14:45.690Z,732.74
2017-02-26T04:15:45.675Z,732.66
2017-02-26T04:16:45.659Z,732.66
2017-02-26T04:17:45.640Z,732.58
2017-02-26T04:18:45.627Z,732.67
2017-02-26T04:19:45.606Z,732.67
2017-02-26T04:20:45.595Z,732.58
2017-02-26T04:21:45.580Z,732.7
2017-02-26T04:22:45.558Z,732.61
2017-02-26T04:23:45.547Z,732.56
2017-02-26T04:24:45.527Z,732.57
2017-02-26T04:25:45.511Z,732.55
2017-02-26T04:26:45.494Z,732.62
2017-02-26T04:27:45.681Z,732.53
2017-02-26T04:28:45.467Z,732.66
2017-02-26T04:29:45.450Z,732.62
2017-02-26T04:30:45.432Z,732.58
2017-02-26T04:31:45.414Z,732.59
2017-02-26T04:32:45.401Z,732.61
2017-02-26T04:33:45.586Z,732.62
2017-02-26T04:34:45.369Z,732.56
2017-02-26T04:35:45.348Z,732.59
2017-02-26T04:36:45.337Z,732.6
2017-02-26T04:37:45.320Z,732.6
2017-02-26T04:38:45.300Z,732.7
2017-02-26T04:39:45.289Z,732.6
2017-02-26T04:40:45.267Z,732.66
2017-02-26T04:41:45.252Z,732.59
2017-02-26T04:42:45.236Z,732.44
2017-02-26T04:43:45.224Z,732.51
2017-02-26T04:44:45.207Z,732.51
2017-02-26T04:45:45.192Z,732.5
2017-02-26T04:46:45.171Z,732.54
2017-02-26T04:47:45.155Z,732.59
2017-02-26T04:48:45.139Z,732.6
2017-02-26T04:49:45.123Z,732.61
2017-02-26T04:50:45.107Z,732.62
2017-02-26T04:51:45.095Z,732.61
2017-02-26T04:52:45.079Z,732.6
2017-02-26T04:53:45.065Z,732.63
2017-02-26T04:54:45.046Z,732.51
2017-02-26T04:55:45.026Z,732.48
2017-02-26T04:56:45.015Z,732.54
2017-02-26T04:57:44.995Z,732.6
2017-02-26T04:58:44.982Z,732.57
2017-02-26T04:59:44.964Z,732.5
2017-02-26T05:00:44.950Z,732.55
2017-02-26T05:01:44.934Z,732.61
2017-02-26T05:02:44.913Z,732.53
2017-02-26T05:03:44.902Z,732.6
2017-02-26T05:04:44.882Z,732.5
2017-02-26T05:05:44.866Z,732.51
2017-02-26T05:06:44.853Z,732.62
2017-02-26T05:07:44.834Z,732.44
2017-02-26T05:08:44.822Z,732.51
2017-02-26T05:09:44.801Z,732.58
2017-02-26T05:10:44.786Z,732.54
2017-02-26T05:11:44.771Z,732.52
2017-02-26T05:12:44.754Z,732.5
2017-02-26T05:13:44.739Z,732.48
2017-02-26T05:14:44.726Z,732.52
2017-02-26T05:15:44.710Z,732.62
2017-02-26T05:16:44.694Z,732.54
2017-02-26T05:17:44.678Z,732.49
2017-02-26T05:18:44.662Z,732.6
2017-02-26T05:19:44.643Z,732.58
2017-02-26T05:20:44.630Z,732.5
2017-02-26T05:21:44.614Z,732.45
2017-02-26T05:22:44.598Z,732.56
2017-02-26T05:23:44.578Z,732.51
2017-02-26T05:24:44.566Z,732.5
2017-02-26T05:25:44.550Z,732.5
2017-02-26T05:26:44.534Z,732.53
2017-02-26T05:27:44.514Z,732.48
2017-02-26T05:28:44.501Z,732.48
2017-02-26T05:29:44.481Z,732.45
2017-02-26T05:30:44.466Z,732.48
2017-02-26T05:31:44.448Z,732.4
2017-02-26T05:32:44.432Z,732.5
2017-02-26T05:33:44.416Z,732.51
2017-02-26T05:34:44.404Z,732.42
2017-02-26T05:35:44.387Z,732.48
2017-02-26T05:36:44.371Z,732.52
2017-02-26T05:37:44.351Z,732.46
2017-02-26T05:38:44.334Z,732.42
2017-02-26T05:39:44.319Z,732.44
2017-02-26T05:40:44.303Z,732.44
2017-02-26T05:41:44.291Z,732.46
2017-02-26T05:42:44.270Z,732.43
2017-02-26T05:43:44.258Z,732.51
2017-02-26T05:44:44.242Z,732.33
2017-02-26T05:45:44.222Z,732.52
2017-02-26T05:46:44.210Z,732.4
2017-02-26T05:47:44.190Z,732.47
2017-02-26T05:48:44.179Z,732.31
2017-02-26T05:49:44.161Z,732.52
2017-02-26T05:50:44.146Z,732.41
2017-02-26T05:51:44.127Z,732.45
2017-02-26T05:52:44.109Z,732.43
2017-02-26T05:53:44.097Z,732.42
2017-02-26T05:54:44.077Z,732.49
2017-02-26T05:55:44.065Z,732.43
2017-02-26T05:56:44.049Z,732.27
2017-02-26T05:57:44.033Z,732.47
2017-02-26T05:58:44.016Z,732.48
2017-02-26T05:59:44.001Z,732.63
2017-02-26T06:00:43.985Z,732.53
2017-02-26T06:01:43.965Z,732.5
2017-02-26T06:02:43.947Z,732.47
2017-02-26T06:03:43.935Z,732.62
2017-02-26T06:04:43.915Z,732.52
2017-02-26T06:05:43.899Z,732.57
2017-02-26T06:06:43.887Z,732.49
2017-02-26T06:07:43.867Z,732.48
2017-02-26T06:08:43.855Z,732.61
2017-02-26T06:09:43.835Z,732.52
2017-02-26T06:10:43.823Z,732.51
2017-02-26T06:11:43.802Z,732.45
2017-02-26T06:12:43.786Z,732.55
2017-02-26T06:13:43.775Z,732.62
2017-02-26T06:14:43.755Z,732.59
2017-02-26T06:15:43.742Z,732.62
2017-02-26T06:16:43.722Z,732.55
2017-02-26T06:17:43.711Z,732.54
2017-02-26T06:18:43.690Z,732.49
2017-02-26T06:19:43.675Z,732.55
2017-02-26T06:20:43.660Z,732.52
2017-02-26T06:21:43.644Z,732.57
2017-02-26T06:22:43.627Z,732.58
2017-02-26T06:23:43.610Z,732.57
2017-02-26T06:24:43.595Z,732.61
2017-02-26T06:25:43.583Z,732.62
2017-02-26T06:26:43.563Z,732.63
2017-02-26T06:27:43.551Z,732.66
2017-02-26T06:28:43.534Z,732.69
2017-02-26T06:29:43.513Z,732.75
2017-02-26T06:30:43.498Z,732.73
2017-02-26T06:31:43.483Z,732.65
2017-02-26T06:32:43.470Z,732.69
2017-02-26T06:33:43.450Z,732.78
2017-02-26T06:34:43.434Z,732.73
2017-02-26T06:35:43.418Z,732.76
2017-02-26T06:36:43.404Z,732.78
2017-02-26T06:37:43.386Z,732.92
2017-02-26T06:38:43.374Z,732.79
2017-02-26T06:39:43.358Z,732.71
2017-02-26T06:40:43.339Z,732.83
2017-02-26T06:41:43.321Z,732.77
2017-02-26T06:42:43.309Z,732.84
2017-02-26T06:43:43.295Z,732.92
2017-02-26T06:44:43.278Z,732.79
2017-02-26T06:45:43.258Z,732.81
2017-02-26T06:46:43.243Z,732.85
2017-02-26T06:47:43.228Z,732.89
2017-02-26T06:48:43.211Z,732.84
2017-02-26T06:49:43.200Z,732.91
2017-02-26T06:50:43.183Z,732.86
2017-02-26T06:51:43.163Z,732.9
2017-02-26T06:52:43.151Z,732.94
2017-02-26T06:53:43.136Z,732.89
2017-02-26T06:54:43.117Z,732.84
2017-02-26T06:55:43.099Z,732.91
2017-02-26T06:56:43.087Z,732.9
2017-02-26T06:57:43.068Z,732.9
2017-02-26T06:58:43.055Z,732.89
2017-02-26T06:59:43.035Z,732.9
2017-02-26T07:00:43.023Z,732.89
2017-02-26T07:01:43.009Z,732.83
2017-02-26T07:02:42.989Z,732.93
2017-02-26T07:03:42.976Z,732.89
2017-02-26T07:04:42.956Z,732.97
2017-02-26T07:05:42.939Z,732.94
2017-02-26T07:06:42.922Z,732.99
2017-02-26T07:07:42.911Z,733.04
2017-02-26T07:08:42.891Z,732.95
2017-02-26T07:09:42.876Z,732.91
2017-02-26T07:10:42.862Z,733.04
2017-02-26T07:11:42.847Z,733.01
2017-02-26T07:12:42.831Z,732.97
2017-02-26T07:13:42.815Z,732.96
2017-02-26T07:14:42.796Z,732.98
2017-02-26T07:15:42.784Z,733
2017-02-26T07:16:42.768Z,733.03
2017-02-26T07:17:42.747Z,733
2017-02-26T07:18:42.736Z,732.98
2017-02-26T07:19:42.717Z,733.06
2017-02-26T07:20:42.701Z,732.97
2017-02-26T07:21:42.687Z,733.06
2017-02-26T07:22:42.677Z,733
2017-02-26T07:23:42.661Z,733.07
2017-02-26T07:24:42.644Z,733.01
2017-02-26T07:25:42.625Z,733.06
2017-02-26T07:26:42.611Z,733
2017-02-26T07:27:42.600Z,733.09
2017-02-26T07:28:42.580Z,733.05
2017-02-26T07:29:42.564Z,733.05
2017-02-26T07:30:42.550Z,733.09
2017-02-26T07:31:42.540Z,733.05
2017-02-26T07:32:42.517Z,733.05
2017-02-26T07:33:42.506Z,733.04
2017-02-26T07:34:42.487Z,733.13
2017-02-26T07:35:42.471Z,732.92
2017-02-26T07:36:42.456Z,733.03
2017-02-26T07:37:42.445Z,732.95
2017-02-26T07:38:42.425Z,733.06
2017-02-26T07:39:42.413Z,733.06
2017-02-26T07:40:42.394Z,733.03
2017-02-26T07:41:42.379Z,733.1
2017-02-26T07:42:42.366Z,733.05
2017-02-26T07:43:42.346Z,733.02
2017-02-26T07:44:42.331Z,732.97
2017-02-26T07:45:42.320Z,732.98
2017-02-26T07:46:42.305Z,733.09
2017-02-26T07:47:42.289Z,733.03
2017-02-26T07:48:42.270Z,733.07
2017-02-26T07:49:42.259Z,733.05
2017-02-26T07:50:42.243Z,733.06
2017-02-26T07:51:42.223Z,733.13
2017-02-26T07:52:42.212Z,733.06
2017-02-26T07:53:42.196Z,733.13
2017-02-26T07:54:42.180Z,733.13
2017-02-26T07:55:42.161Z,733.11
2017-02-26T07:56:42.150Z,733.14
2017-02-26T07:57:42.129Z,733.09
2017-02-26T07:58:42.118Z,733.15
2017-02-26T07:59:42.103Z,733.14
2017-02-26T08:00:42.084Z,733.08
2017-02-26T08:01:42.068Z,733.15
2017-02-26T08:02:42.053Z,733.15
2017-02-26T08:03:42.042Z,732.98
2017-02-26T08:04:42.023Z,733.06
2017-02-26T08:05:42.010Z,733.07
2017-02-26T08:06:41.992Z,733.1
2017-02-26T08:07:41.977Z,733.15
2017-02-26T08:08:41.959Z,733.13
2017-02-26T08:09:41.944Z,733.14
2017-02-26T08:10:41.934Z,733.18
2017-02-26T08:11:41.915Z,733.17
2017-02-26T08:12:41.903Z,733.12
2017-02-26T08:13:41.888Z,733.13
2017-02-26T08:14:41.873Z,733.16
2017-02-26T08:15:41.857Z,733.19
2017-02-26T08:16:41.841Z,733.12
2017-02-26T08:17:41.829Z,733.15
2017-02-26T08:18:41.815Z,733.17
2017-02-26T08:19:41.794Z,733.16
2017-02-26T08:20:41.781Z,733.12
2017-02-26T08:21:41.771Z,733.11
2017-02-26T08:22:41.757Z,733.16
2017-02-26T08:23:41.743Z,733.16
2017-02-26T08:24:41.727Z,733.28
2017-02-26T08:25:41.710Z,733.24
2017-02-26T08:26:41.698Z,733.27
2017-02-26T08:27:41.680Z,733.26
2017-02-26T08:28:41.666Z,733.19
2017-02-26T08:29:41.656Z,733.23
2017-02-26T08:30:41.643Z,733.22
2017-02-26T08:31:41.628Z,733.23
2017-02-26T08:32:41.614Z,733.2
2017-02-26T08:33:41.595Z,733.23
2017-02-26T08:34:41.581Z,733.29
2017-02-26T08:35:41.568Z,733.27
2017-02-26T08:36:41.556Z,733.16
2017-02-26T08:37:41.538Z,733.26
2017-02-26T08:38:41.523Z,733.29
2017-02-26T08:39:41.509Z,733.27
2017-02-26T08:40:41.494Z,733.24
2017-02-26T08:41:41.479Z,733.29
2017-02-26T08:42:41.466Z,733.21
2017-02-26T08:43:41.453Z,733.35
2017-02-26T08:44:41.439Z,733.32
2017-02-26T08:45:41.428Z,733.27
2017-02-26T08:46:41.415Z,733.31
2017-02-26T08:47:41.396Z,733.36
2017-02-26T08:48:41.382Z,733.28
2017-02-26T08:49:41.368Z,733.3
2017-02-26T08:50:41.358Z,733.36
2017-02-26T08:51:41.339Z,733.29
2017-02-26T08:52:41.328Z,733.3
2017-02-26T08:53:41.314Z,733.35
2017-02-26T08:54:41.297Z,733.36
2017-02-26T08:55:41.283Z,733.31
2017-02-26T08:56:41.272Z,733.35
2017-02-26T08:57:41.255Z,733.32
2017-02-26T08:58:41.245Z,733.29
2017-02-26T08:59:41.225Z,733.35
2017-02-26T09:00:41.212Z,733.37
2017-02-26T09:01:41.201Z,733.4
2017-02-26T09:02:41.186Z,733.35
2017-02-26T09:03:41.172Z,733.35
2017-02-26T09:04:41.156Z,733.52
2017-02-26T09:05:41.174Z,733.49
2017-02-26T09:06:41.128Z,733.41
2017-02-26T09:07:41.111Z,733.42
2017-02-26T09:08:41.097Z,733.49
2017-02-26T09:09:41.083Z,733.49
2017-02-26T09:10:41.068Z,733.51
2017-02-26T09:11:41.054Z,733.48
2017-02-26T09:12:41.040Z,733.61
2017-02-26T09:13:41.031Z,733.48
2017-02-26T09:14:41.017Z,733.54
2017-02-26T09:15:41.000Z,733.48
2017-02-26T09:16:40.986Z,733.49
2017-02-26T09:17:40.973Z,733.48
2017-02-26T09:18:40.959Z,733.52
2017-02-26T09:19:40.949Z,733.54
2017-02-26T09:20:40.936Z,733.54
2017-02-26T09:21:40.922Z,733.55
2017-02-26T09:22:40.905Z,733.49
2017-02-26T09:23:40.894Z,733.54
2017-02-26T09:24:40.881Z,733.46
2017-02-26T09:25:40.866Z,733.44
2017-02-26T09:26:40.853Z,733.47
2017-02-26T09:27:40.844Z,733.43
2017-02-26T09:28:40.826Z,733.48
2017-02-26T09:29:40.812Z,733.46
2017-02-26T09:30:40.803Z,733.54
2017-02-26T09:31:40.786Z,733.47
2017-02-26T09:32:40.776Z,733.53
2017-02-26T09:33:40.758Z,733.54
2017-02-26T09:34:40.746Z,733.55
2017-02-26T09:35:40.731Z,733.65
2017-02-26T09:36:40.721Z,733.51
2017-02-26T09:37:40.703Z,733.54
2017-02-26T09:38:40.691Z,733.55
2017-02-26T09:39:40.675Z,733.57
2017-02-26T09:40:40.662Z,733.59
2017-02-26T09:41:40.649Z,733.65
2017-02-26T09:42:40.640Z,733.58
2017-02-26T09:43:40.625Z,733.52
2017-02-26T09:44:40.612Z,733.69
2017-02-26T09:45:40.599Z,733.59
2017-02-26T09:46:40.581Z,733.59
2017-02-26T09:47:40.566Z,733.63
2017-02-26T09:48:40.557Z,733.64
2017-02-26T09:49:40.541Z,733.64
2017-02-26T09:50:40.529Z,733.59
2017-02-26T09:51:40.512Z,733.66
2017-02-26T09:52:40.498Z,733.63
2017-02-26T09:53:40.489Z,733.58
2017-02-26T09:54:40.471Z,733.64
2017-02-26T09:55:40.456Z,733.77
2017-02-26T09:56:40.447Z,733.76
2017-02-26T09:57:40.434Z,733.62
2017-02-26T09:58:40.419Z,733.68
2017-02-26T09:59:40.401Z,733.74
2017-02-26T10:00:40.387Z,733.73
2017-02-26T10:01:40.373Z,733.63
2017-02-26T10:02:40.363Z,733.57
2017-02-26T10:03:40.349Z,733.7
2017-02-26T10:04:40.335Z,733.66
2017-02-26T10:05:40.315Z,733.69
2017-02-26T10:06:40.305Z,733.77
2017-02-26T10:07:40.293Z,733.74
2017-02-26T10:08:40.278Z,733.7
2017-02-26T10:09:40.263Z,733.67
2017-02-26T10:10:40.251Z,733.72
2017-02-26T10:11:40.237Z,733.71
2017-02-26T10:12:40.218Z,733.69
2017-02-26T10:13:40.204Z,733.64
2017-02-26T10:14:40.192Z,733.63
2017-02-26T10:15:40.176Z,733.67
2017-02-26T10:16:40.162Z,733.67
2017-02-26T10:17:40.153Z,733.72
2017-02-26T10:18:40.139Z,733.65
2017-02-26T10:19:40.121Z,733.61
2017-02-26T10:20:40.108Z,733.6
2017-02-26T10:21:40.092Z,733.61
2017-02-26T10:22:40.079Z,733.65
2017-02-26T10:23:40.065Z,733.68
2017-02-26T10:24:40.057Z,733.65
2017-02-26T10:25:40.037Z,733.55
2017-02-26T10:26:40.031Z,733.62
2017-02-26T10:27:40.013Z,733.63
2017-02-26T10:28:39.998Z,733.69
2017-02-26T10:29:39.981Z,733.55
2017-02-26T10:30:39.966Z,733.68
2017-02-26T10:31:39.953Z,733.68
2017-02-26T10:32:39.943Z,733.63
2017-02-26T10:33:39.929Z,733.75
2017-02-26T10:34:39.910Z,733.79
2017-02-26T10:35:39.899Z,733.75
2017-02-26T10:36:39.882Z,733.77
2017-02-26T10:37:39.871Z,733.68
2017-02-26T10:38:39.856Z,733.72
2017-02-26T10:39:39.838Z,733.6
2017-02-26T10:40:39.825Z,733.71
2017-02-26T10:41:39.813Z,733.61
2017-02-26T10:42:39.795Z,733.6
2017-02-26T10:43:39.782Z,733.69
2017-02-26T10:44:39.771Z,733.68
2017-02-26T10:45:39.756Z,733.68
2017-02-26T10:46:39.739Z,733.69
2017-02-26T10:47:39.723Z,733.73
2017-02-26T10:48:39.714Z,733.64
2017-02-26T10:49:39.696Z,733.46
2017-02-26T10:50:39.681Z,733.59
2017-02-26T10:51:39.671Z,733.64
2017-02-26T10:52:39.653Z,733.62
2017-02-26T10:53:39.641Z,733.69
2017-02-26T10:54:39.623Z,733.71
2017-02-26T10:55:39.609Z,733.6
2017-02-26T10:56:39.599Z,733.59
2017-02-26T10:57:39.583Z,733.6
2017-02-26T10:58:39.566Z,733.68
2017-02-26T10:59:39.553Z,733.63
2017-02-26T11:00:39.536Z,733.6
2017-02-26T11:01:39.523Z,733.59
2017-02-26T11:02:39.508Z,733.58
2017-02-26T11:03:39.494Z,733.54
2017-02-26T11:04:39.479Z,733.57
2017-02-26T11:05:39.469Z,733.58
2017-02-26T11:06:39.455Z,733.58
2017-02-26T11:07:39.439Z,733.56
2017-02-26T11:08:39.428Z,733.57
2017-02-26T11:09:39.412Z,733.6
2017-02-26T11:10:39.393Z,733.56
2017-02-26T11:11:39.380Z,733.54
2017-02-26T11:12:39.365Z,733.49
2017-02-26T11:13:39.350Z,733.52
2017-02-26T11:14:39.334Z,733.53
2017-02-26T11:15:39.323Z,733.49
2017-02-26T11:16:39.305Z,733.56
2017-02-26T11:17:39.294Z,733.49
2017-02-26T11:18:39.279Z,733.53
2017-02-26T11:19:39.264Z,733.59
2017-02-26T11:20:39.250Z,733.56
2017-02-26T11:21:39.231Z,733.54
2017-02-26T11:22:39.218Z,733.51
2017-02-26T11:23:39.205Z,733.52
2017-02-26T11:24:39.187Z,733.54
2017-02-26T11:25:39.176Z,733.55
2017-02-26T11:26:39.158Z,733.47
2017-02-26T11:27:39.147Z,733.54
2017-02-26T11:28:39.134Z,733.5
2017-02-26T11:29:39.120Z,733.48
2017-02-26T11:30:39.100Z,733.5
2017-02-26T11:31:39.090Z,733.38
2017-02-26T11:32:39.076Z,733.37
2017-02-26T11:33:39.061Z,733.44
2017-02-26T11:34:39.048Z,733.33
2017-02-26T11:35:39.032Z,733.42
2017-02-26T11:36:39.013Z,733.43
2017-02-26T11:37:39.004Z,733.34
2017-02-26T11:38:38.987Z,733.29
2017-02-26T11:39:38.969Z,733.32
2017-02-26T11:40:38.958Z,733.43
2017-02-26T11:41:38.943Z,733.42
2017-02-26T11:42:38.928Z,733.41
2017-02-26T11:43:38.910Z,733.44
2017-02-26T11:44:38.893Z,733.37
2017-02-26T11:45:38.885Z,733.44
2017-02-26T11:46:38.864Z,733.39
2017-02-26T11:47:38.852Z,733.42
2017-02-26T11:48:38.832Z,733.42
2017-02-26T11:49:38.822Z,733.35
2017-02-26T11:50:38.806Z,733.4
2017-02-26T11:51:38.790Z,733.31
2017-02-26T11:52:38.774Z,733.35
2017-02-26T11:53:38.754Z,733.27
2017-02-26T11:54:38.743Z,733.23
2017-02-26T11:55:38.722Z,733.25
2017-02-26T11:56:38.708Z,733.35
2017-02-26T11:57:38.694Z,733.3
2017-02-26T11:58:38.677Z,733.23
2017-02-26T11:59:38.662Z,733.17
2017-02-26T12:00:38.646Z,733.22
2017-02-26T12:01:38.626Z,733.14
2017-02-26T12:02:38.610Z,733.15
2017-02-26T12:03:38.599Z,733.14
2017-02-26T12:04:38.583Z,733.15
2017-02-26T12:05:38.564Z,733.16
2017-02-26T12:06:38.553Z,733.15
2017-02-26T12:07:38.536Z,733.12
2017-02-26T12:08:38.525Z,733.29
2017-02-26T12:09:38.509Z,733.1
2017-02-26T12:10:38.495Z,733.33
2017-02-26T12:11:38.476Z,733.16
2017-02-26T12:12:38.467Z,733.35
2017-02-26T12:13:38.448Z,733.2
2017-02-26T12:14:38.433Z,733.29
2017-02-26T12:15:38.422Z,733.15
2017-02-26T12:16:38.402Z,733.18
2017-02-26T12:17:38.388Z,733.02
2017-02-26T12:18:38.373Z,733.07
2017-02-26T12:19:38.360Z,733.1
2017-02-26T12:20:38.342Z,733.08
2017-02-26T12:21:38.326Z,733.03
2017-02-26T12:22:38.315Z,733.08
2017-02-26T12:23:38.300Z,733.09
2017-02-26T12:24:38.280Z,733.08
2017-02-26T12:25:38.269Z,732.97
2017-02-26T12:26:38.256Z,733.07
2017-02-26T12:27:38.234Z,732.85
2017-02-26T12:28:38.224Z,732.94
2017-02-26T12:29:38.205Z,733
2017-02-26T12:30:38.195Z,733.08
2017-02-26T12:31:38.180Z,733.05